Terminal Aerodrome Forecast
Issued by NWS

Home | Current Version | Previous Version | Text Only | Print | Product List | Glossary On
Versions: 1 2 3 4 5 6 7 8 9 10 11 12 13 14 15 16 17 18
000
FTUS43 KICT 252324
TAFHUT
TAF
KHUT 252324Z 2600/2624 06007KT P6SM SCT100
     FM260900 06004KT 6SM BR SCT020
     FM261100 07004KT 4SM BR SCT012
     FM261500 10008KT P6SM SCT120=

USA.gov is the U.S. government's official web portal to all federal, state and local government web resources and services.